Wolf, WY (82844)

7:22 PM MDT on August 28, 2014 (GMT -0600)
KWYSHERI2 | Change Station
CLOSE
Current Station
Personal Weather Station
Location: Sheridan, WY
Elevation: 3828 ft
Nearby Weather Stations

Elev 3828 ft 44.81 °N, 106.98 °W | Updated 9 minutes ago

Clear
Clear
84.4 °F
Feels Like 81 °F
N
0.0
Wind Variable Wind from NW
Gusts 0.0 mph

Today
High -- | Low -- °F
--% Chance of Precip.
Yesterday
High -- | Low -- °F
Precip. -- in
6:26 AM 7:52 PM
Waxing Crescent, 11% visible
Pressure 29.87 in
Visibility 10.0 miles
Clouds Clear
Heat Index 81 °F
Dew Point 32 °F
Humidity 15%
Rainfall 0.00 in
Snow Depth 0 in , 0 in
UV out of 12
Pollen 8.50 out of 12
Air Quality Not available.
Flu Activity Not available.
METAR KSHR 290053Z AUTO 30005KT 10SM CLR 27/08 A2995 RMK AO2 SLP114 T02720078

More Conditions Fewer Conditions

Pressure 29.87 in
Visibility 10.0 miles
Clouds Clear
Heat Index 81 °F
Dew Point 32 °F
Humidity 15%
Rainfall 0.00 in
Snow Depth 0 in , 0 in
UV out of 12
Pollen 8.50 out of 12
Air Quality Not available.
Flu Activity Not available.
METAR KSHR 290053Z AUTO 30005KT 10SM CLR 27/08 A2995 RMK AO2 SLP114 T02720078

More Conditions Fewer Conditions

10-Day Weather Forecast

Almanac

Astronomy

Aug. 28, 2014 Rise Set
Actual Time 6:26 AM MDT 7:52 PM MDT
Civil Twilight 5:55 AM MDT 8:23 PM MDT
Nautical Twilight 5:18 AM MDT 8:59 PM MDT
Astronomical Twilight 4:39 AM MDT 9:39 PM MDT
Moon 9:30 AM MDT (8/28) 9:08 PM MDT (8/28)
Length of Visible Light 14h 27m
Length of Day
13h 26m
Tomorrow will be 2m 58s shorter.
Waxing Crescent, 11% of the Moon is Illuminated
Today
Waxing Crescent
Sep 2
First Quarter
Sep 8
Full
Sep 15
Last Quarter
Sep 24
New

Today's Extremes

State Highs State Lows

Community

WunderPhotos

Upload Photos

1,748,126 photos uploaded!

Nearby

Snow Depth

Station Depth Elevation
Burgess Junction 0 in 7880 ft
Bone Springs Divide 0 in 9350 ft
Bald Mountain 0 in 9380 ft
Casper Mountain 0 in 7850 ft
Gunsight Pass 1 in 9820 ft

Earthquake Activity

City Distance Mag. Time & Date
No recent earthquake activity has been reported nearby.
Minimum magnitude displayed is 2.5.

Coastal Water Temperatures

Place Temperature
No Stations Reporting

Nearby Weather Stations